createdAt,value
2022-08-30T00:00:46.925Z,36.86
2022-08-30T00:02:15.395Z,36.94
2022-08-30T00:03:35.025Z,36.90
2022-08-30T00:06:34.738Z,36.88
2022-08-30T00:08:16.474Z,37.13
2022-08-30T00:10:10.091Z,37.04
2022-08-30T00:12:51.490Z,37.00
2022-08-30T00:14:20.952Z,36.92
2022-08-30T00:15:34.362Z,36.99
2022-08-30T00:16:43.451Z,36.90
2022-08-30T00:19:47.402Z,36.73
2022-08-30T00:20:56.460Z,36.68
2022-08-30T00:22:03.141Z,36.77
2022-08-30T00:23:11.173Z,36.72
2022-08-30T00:24:20.483Z,36.68
2022-08-30T00:25:27.168Z,36.67
2022-08-30T00:26:37.319Z,36.51
2022-08-30T00:27:44.734Z,36.52
2022-08-30T00:28:51.964Z,36.55
2022-08-30T00:29:59.587Z,36.38
2022-08-30T00:31:07.097Z,36.37
2022-08-30T00:32:14.878Z,36.31
2022-08-30T00:33:36.540Z,36.30
2022-08-30T00:34:45.331Z,36.37
2022-08-30T00:35:53.454Z,36.28
2022-08-30T00:37:01.656Z,36.38
2022-08-30T00:38:10.457Z,36.44
2022-08-30T00:44:40.111Z,36.22
2022-08-30T00:46:26.354Z,36.03
2022-08-30T00:47:51.201Z,35.84
2022-08-30T00:49:20.653Z,35.82
2022-08-30T00:55:57.299Z,35.83
2022-08-30T00:57:03.749Z,35.69
2022-08-30T00:58:10.503Z,35.59
2022-08-30T00:59:17.928Z,35.58
2022-08-30T01:00:24.672Z,35.57
2022-08-30T01:01:31.936Z,35.40
2022-08-30T01:02:41.350Z,35.45
2022-08-30T01:03:47.274Z,35.35
2022-08-30T01:04:53.806Z,35.33
2022-08-30T01:06:00.314Z,35.31
2022-08-30T01:07:06.448Z,35.23
2022-08-30T01:08:12.604Z,35.16
2022-08-30T01:09:18.835Z,35.09
2022-08-30T01:10:24.571Z,35.02
2022-08-30T01:11:35.233Z,34.90
2022-08-30T01:12:41.384Z,34.78
2022-08-30T01:13:49.214Z,34.73
2022-08-30T01:14:58.549Z,34.72
2022-08-30T01:16:04.858Z,34.62
2022-08-30T01:17:11.223Z,34.53
2022-08-30T01:18:22.179Z,34.53
2022-08-30T01:19:52.774Z,34.48
2022-08-30T01:21:35.823Z,34.45
2022-08-30T01:22:52.766Z,34.26
2022-08-30T01:23:58.956Z,34.07
2022-08-30T01:25:04.770Z,33.98
2022-08-30T01:26:15.881Z,33.99
2022-08-30T01:27:24.705Z,33.97
2022-08-30T01:28:31.660Z,33.97
2022-08-30T01:29:40.368Z,33.88
2022-08-30T01:30:46.382Z,33.79
2022-08-30T01:31:54.975Z,33.72
2022-08-30T01:33:02.355Z,33.55
2022-08-30T01:34:08.954Z,33.45
2022-08-30T01:35:16.738Z,33.52
2022-08-30T01:36:23.705Z,33.32
2022-08-30T01:37:34.053Z,33.14
2022-08-30T01:38:54.847Z,33.06
2022-08-30T01:40:02.245Z,32.84
2022-08-30T01:41:14.600Z,32.68
2022-08-30T01:42:21.403Z,32.63
2022-08-30T01:43:27.986Z,32.48
2022-08-30T01:44:35.869Z,32.21
2022-08-30T01:45:45.141Z,32.15
2022-08-30T01:46:56.687Z,32.12
2022-08-30T01:48:06.535Z,31.96
2022-08-30T01:49:16.926Z,31.91
2022-08-30T01:50:26.560Z,31.84
2022-08-30T01:51:33.424Z,31.79
2022-08-30T01:52:41.780Z,31.61
2022-08-30T01:53:48.977Z,31.43
2022-08-30T01:54:55.553Z,31.24
2022-08-30T01:56:02.003Z,31.18
2022-08-30T01:57:14.721Z,31.08
2022-08-30T01:58:21.396Z,31.00
2022-08-30T01:59:29.060Z,30.83
2022-08-30T02:00:35.182Z,30.73
2022-08-30T02:01:43.173Z,30.70
2022-08-30T02:02:49.984Z,30.54
2022-08-30T02:03:57.874Z,30.39
2022-08-30T02:05:05.084Z,30.25
2022-08-30T02:06:12.819Z,30.02
2022-08-30T02:07:20.266Z,29.83
2022-08-30T02:08:26.463Z,29.65
2022-08-30T02:09:35.599Z,29.48
2022-08-30T02:10:41.761Z,29.32
2022-08-30T02:11:48.964Z,29.19
2022-08-30T02:12:54.577Z,29.07
2022-08-30T02:14:00.504Z,28.95
2022-08-30T02:15:07.389Z,28.82
2022-08-30T02:16:18.112Z,28.71
2022-08-30T02:17:23.852Z,28.59
2022-08-30T02:18:30.055Z,28.50
2022-08-30T02:19:36.214Z,28.38
2022-08-30T02:20:42.077Z,28.28
2022-08-30T02:21:48.126Z,28.20
2022-08-30T02:22:56.747Z,28.09
2022-08-30T02:24:06.584Z,28.00
2022-08-30T02:25:21.104Z,27.93
2022-08-30T02:26:29.565Z,27.84
2022-08-30T02:27:38.485Z,27.75
2022-08-30T02:28:50.276Z,27.69
2022-08-30T02:29:58.203Z,27.63
2022-08-30T02:31:04.143Z,27.56
2022-08-30T02:32:10.102Z,27.51
2022-08-30T02:33:16.836Z,27.46
2022-08-30T02:34:24.037Z,27.41
2022-08-30T02:35:29.908Z,27.37
2022-08-30T02:36:37.733Z,27.32
2022-08-30T02:37:44.319Z,27.28
2022-08-30T02:38:50.800Z,27.23
2022-08-30T02:39:57.244Z,27.17
2022-08-30T02:41:03.151Z,27.12
2022-08-30T02:42:10.113Z,27.07
2022-08-30T02:43:16.378Z,27.02
2022-08-30T02:44:23.971Z,26.99
2022-08-30T02:45:30.071Z,26.96
2022-08-30T02:46:35.875Z,26.93
2022-08-30T02:47:47.104Z,26.89
2022-08-30T02:48:53.530Z,26.85
2022-08-30T02:49:59.290Z,26.80
2022-08-30T02:51:11.450Z,26.77
2022-08-30T02:52:27.718Z,26.73
2022-08-30T02:53:36.015Z,26.67
2022-08-30T02:54:44.417Z,26.64
2022-08-30T02:55:51.880Z,26.59
2022-08-30T02:56:58.172Z,26.55
2022-08-30T02:58:05.922Z,26.52
2022-08-30T02:59:12.071Z,26.48
2022-08-30T03:00:19.552Z,26.45
2022-08-30T03:01:29.226Z,26.41
2022-08-30T03:02:36.171Z,26.36
2022-08-30T03:03:42.789Z,26.32
2022-08-30T03:04:48.794Z,26.30
2022-08-30T03:05:54.779Z,26.28
2022-08-30T03:07:00.725Z,26.25
2022-08-30T03:08:06.434Z,26.21
2022-08-30T03:09:14.405Z,26.18
2022-08-30T03:10:20.167Z,26.16
2022-08-30T03:11:28.063Z,26.13
2022-08-30T03:12:34.535Z,26.10
2022-08-30T03:13:40.725Z,26.07
2022-08-30T03:14:46.936Z,26.04
2022-08-30T03:15:53.307Z,26.02
2022-08-30T03:16:59.905Z,26.00
2022-08-30T03:18:06.145Z,25.97
2022-08-30T03:19:13.262Z,25.94
2022-08-30T03:20:19.273Z,25.91
2022-08-30T03:21:29.632Z,25.86
2022-08-30T03:22:35.356Z,25.81
2022-08-30T03:23:42.026Z,25.78
2022-08-30T03:24:48.300Z,25.74
2022-08-30T03:25:59.503Z,25.70
2022-08-30T03:27:06.297Z,25.66
2022-08-30T03:28:13.776Z,25.63
2022-08-30T03:29:21.019Z,25.59
2022-08-30T03:30:26.727Z,25.57
2022-08-30T03:31:40.687Z,25.55
2022-08-30T03:33:00.310Z,25.50
2022-08-30T03:34:07.223Z,25.46
2022-08-30T03:35:13.317Z,25.43
2022-08-30T03:36:19.269Z,25.40
2022-08-30T03:37:27.430Z,25.38
2022-08-30T03:38:34.532Z,25.35
2022-08-30T03:39:42.910Z,25.32
2022-08-30T03:40:49.560Z,25.29
2022-08-30T03:41:57.040Z,25.24
2022-08-30T03:43:03.923Z,25.21
2022-08-30T03:44:14.622Z,25.19
2022-08-30T03:45:31.728Z,25.16
2022-08-30T03:46:40.949Z,25.13
2022-08-30T03:47:47.784Z,25.10
2022-08-30T03:48:58.829Z,25.06
2022-08-30T03:50:12.816Z,25.03
2022-08-30T03:51:47.147Z,24.99
2022-08-30T03:52:56.687Z,24.95
2022-08-30T03:54:05.269Z,24.92
2022-08-30T03:55:11.464Z,24.90
2022-08-30T03:56:17.631Z,24.87
2022-08-30T03:57:24.527Z,24.84
2022-08-30T03:58:33.794Z,24.82
2022-08-30T03:59:42.433Z,24.79
2022-08-30T04:00:48.245Z,24.77
2022-08-30T04:01:54.468Z,24.73
2022-08-30T04:03:00.272Z,24.72
2022-08-30T04:04:06.204Z,24.69
2022-08-30T04:05:14.149Z,24.67
2022-08-30T04:06:29.142Z,24.64
2022-08-30T04:07:39.224Z,24.62
2022-08-30T04:08:46.682Z,24.60
2022-08-30T04:09:53.600Z,24.57
2022-08-30T04:10:59.920Z,24.55
2022-08-30T04:12:06.291Z,24.54
2022-08-30T04:13:13.424Z,24.52
2022-08-30T04:14:21.668Z,24.49
2022-08-30T04:15:29.887Z,24.49
2022-08-30T04:16:38.527Z,24.48
2022-08-30T04:17:46.768Z,24.47
2022-08-30T04:18:54.369Z,24.46
2022-08-30T04:20:03.140Z,24.44
2022-08-30T04:21:14.003Z,24.43
2022-08-30T04:22:23.062Z,24.40
2022-08-30T04:23:32.269Z,24.40
2022-08-30T04:24:42.189Z,24.37
2022-08-30T04:25:49.011Z,24.35
2022-08-30T04:26:56.525Z,24.33
2022-08-30T04:28:04.362Z,24.32
2022-08-30T04:29:17.947Z,24.31
2022-08-30T04:30:25.895Z,24.28
2022-08-30T04:31:34.438Z,24.26
2022-08-30T04:32:41.937Z,24.23
2022-08-30T04:33:49.020Z,24.21
2022-08-30T04:35:00.116Z,24.20
2022-08-30T04:36:06.968Z,24.17
2022-08-30T04:37:15.346Z,24.14
2022-08-30T04:38:27.487Z,24.12
2022-08-30T04:39:40.249Z,24.09
2022-08-30T04:40:49.303Z,24.07
2022-08-30T04:41:56.045Z,24.06
2022-08-30T04:43:04.756Z,24.03
2022-08-30T04:44:15.891Z,24.01
2022-08-30T04:45:29.226Z,23.97
2022-08-30T04:46:37.704Z,23.95
2022-08-30T04:47:52.377Z,23.93
2022-08-30T04:49:00.814Z,23.92
2022-08-30T04:50:10.612Z,23.90
2022-08-30T04:51:19.202Z,23.88
2022-08-30T04:52:25.827Z,23.85
2022-08-30T04:53:34.952Z,23.83
2022-08-30T04:54:43.527Z,23.82
2022-08-30T04:55:51.396Z,23.79
2022-08-30T04:56:58.378Z,23.78
2022-08-30T04:58:07.331Z,23.77
2022-08-30T04:59:15.439Z,23.76
2022-08-30T05:00:23.979Z,23.74
2022-08-30T05:01:35.321Z,23.72
2022-08-30T05:02:58.774Z,23.69
2022-08-30T05:04:05.403Z,23.67
2022-08-30T05:05:32.033Z,23.65
2022-08-30T05:06:42.090Z,23.62
2022-08-30T05:07:48.999Z,23.60
2022-08-30T05:08:56.792Z,23.58
2022-08-30T05:10:10.946Z,23.56
2022-08-30T05:11:18.336Z,23.54
2022-08-30T05:12:27.332Z,23.52
2022-08-30T05:13:35.764Z,23.49
2022-08-30T05:14:46.284Z,23.46
2022-08-30T05:15:52.272Z,23.43
2022-08-30T05:17:00.892Z,23.41
2022-08-30T05:18:11.535Z,23.39
2022-08-30T05:19:22.961Z,23.36
2022-08-30T05:20:29.569Z,23.34
2022-08-30T05:21:35.437Z,23.32
2022-08-30T05:22:53.862Z,23.29
2022-08-30T05:24:01.194Z,23.27
2022-08-30T05:25:07.457Z,23.25
2022-08-30T05:26:18.858Z,23.23
2022-08-30T05:27:25.221Z,23.23
2022-08-30T05:28:31.748Z,23.23
2022-08-30T05:29:37.568Z,23.23
2022-08-30T05:30:43.486Z,23.24
2022-08-30T05:31:49.499Z,23.24
2022-08-30T05:32:55.719Z,23.23
2022-08-30T05:34:03.148Z,23.22
2022-08-30T05:35:09.613Z,23.19
2022-08-30T05:36:19.213Z,23.17
2022-08-30T05:37:26.168Z,23.15
2022-08-30T05:38:32.383Z,23.15
2022-08-30T05:39:51.390Z,23.13
2022-08-30T05:40:58.253Z,23.11
2022-08-30T05:42:07.863Z,23.11
2022-08-30T05:43:14.801Z,23.09
2022-08-30T05:44:25.751Z,23.08
2022-08-30T05:45:34.022Z,23.05
2022-08-30T05:46:40.441Z,23.04
2022-08-30T05:47:48.542Z,23.02
2022-08-30T05:48:57.685Z,23.00
2022-08-30T05:50:05.385Z,22.98
2022-08-30T05:51:12.695Z,22.97
2022-08-30T05:52:19.113Z,22.96
2022-08-30T05:53:25.379Z,22.95
2022-08-30T05:54:31.966Z,22.93
2022-08-30T05:55:38.923Z,22.91
2022-08-30T05:56:46.053Z,22.90
2022-08-30T05:57:53.082Z,22.88
2022-08-30T05:58:59.071Z,22.86
2022-08-30T06:00:14.331Z,22.85
2022-08-30T06:01:35.068Z,22.82
2022-08-30T06:02:42.099Z,22.79
2022-08-30T06:03:49.251Z,22.77
2022-08-30T06:04:58.364Z,22.75
2022-08-30T06:06:04.836Z,22.73
2022-08-30T06:07:14.883Z,22.70
2022-08-30T06:08:24.786Z,22.67
2022-08-30T06:09:32.310Z,22.64
2022-08-30T06:10:39.442Z,22.61
2022-08-30T06:11:45.461Z,22.60
2022-08-30T06:12:52.190Z,22.58
2022-08-30T06:13:58.245Z,22.57
2022-08-30T06:15:03.726Z,22.56
2022-08-30T06:16:13.465Z,22.54
2022-08-30T06:17:19.387Z,22.53
2022-08-30T06:18:28.404Z,22.51
2022-08-30T06:19:35.884Z,22.49
2022-08-30T06:20:45.267Z,22.45
2022-08-30T06:21:59.458Z,22.41
2022-08-30T06:23:06.989Z,22.38
2022-08-30T06:24:15.870Z,22.36
2022-08-30T06:25:22.146Z,22.34
2022-08-30T06:26:29.121Z,22.33
2022-08-30T06:27:36.428Z,22.32
2022-08-30T06:28:44.932Z,22.29
2022-08-30T06:29:53.333Z,22.27
2022-08-30T06:31:02.566Z,22.26
2022-08-30T06:32:09.740Z,22.26
2022-08-30T06:33:15.702Z,22.25
2022-08-30T06:34:24.712Z,22.26
2022-08-30T06:35:38.217Z,22.26
2022-08-30T06:36:55.198Z,22.26
2022-08-30T06:38:02.278Z,22.25
2022-08-30T06:39:09.005Z,22.25
2022-08-30T06:40:19.026Z,22.23
2022-08-30T06:41:27.609Z,22.22
2022-08-30T06:42:37.317Z,22.20
2022-08-30T06:43:48.625Z,22.19
2022-08-30T06:44:57.259Z,22.18
2022-08-30T06:46:09.347Z,22.15
2022-08-30T06:47:18.399Z,22.11
2022-08-30T06:48:24.661Z,22.08
2022-08-30T06:49:31.921Z,22.05
2022-08-30T06:50:39.130Z,22.03
2022-08-30T06:51:45.758Z,22.02
2022-08-30T06:52:52.808Z,22.00
2022-08-30T06:53:59.087Z,21.99
2022-08-30T06:55:06.428Z,21.95
2022-08-30T06:56:16.437Z,21.92
2022-08-30T06:57:23.892Z,21.89
2022-08-30T06:58:30.350Z,21.89
2022-08-30T06:59:36.150Z,21.91
2022-08-30T07:00:42.807Z,21.94
2022-08-30T07:01:49.979Z,21.95
2022-08-30T07:02:57.766Z,21.94
2022-08-30T07:04:04.304Z,21.94
2022-08-30T07:05:18.493Z,21.94
2022-08-30T07:06:26.510Z,21.93
2022-08-30T07:07:35.917Z,21.92
2022-08-30T07:08:44.514Z,21.93
2022-08-30T07:09:51.683Z,21.95
2022-08-30T07:10:59.082Z,21.96
2022-08-30T07:12:05.320Z,21.97
2022-08-30T07:13:11.370Z,21.97
2022-08-30T07:14:17.267Z,21.96
2022-08-30T07:15:24.857Z,21.94
2022-08-30T07:16:32.058Z,21.91
2022-08-30T07:17:59.188Z,21.90
2022-08-30T07:19:05.890Z,21.87
2022-08-30T07:20:13.441Z,21.83
2022-08-30T07:21:32.015Z,21.82
2022-08-30T07:22:39.683Z,21.79
2022-08-30T07:23:45.502Z,21.78
2022-08-30T07:24:52.063Z,21.76
2022-08-30T07:25:59.067Z,21.74
2022-08-30T07:27:06.234Z,21.71
2022-08-30T07:28:13.329Z,21.68
2022-08-30T07:29:19.408Z,21.66
2022-08-30T07:30:26.898Z,21.65
2022-08-30T07:31:35.281Z,21.65
2022-08-30T07:32:41.218Z,21.63
2022-08-30T07:33:47.406Z,21.63
2022-08-30T07:34:55.296Z,21.61
2022-08-30T07:36:03.183Z,21.60
2022-08-30T07:37:18.013Z,21.58
2022-08-30T07:38:28.767Z,21.56
2022-08-30T07:39:40.113Z,21.55
2022-08-30T07:40:55.957Z,21.55
2022-08-30T07:42:02.978Z,21.54
2022-08-30T07:43:10.526Z,21.54
2022-08-30T07:44:16.615Z,21.54
2022-08-30T07:45:25.699Z,21.54
2022-08-30T07:46:32.813Z,21.54
2022-08-30T07:47:40.948Z,21.53
2022-08-30T07:48:48.145Z,21.50
2022-08-30T07:49:55.708Z,21.47
2022-08-30T07:51:05.617Z,21.45
2022-08-30T07:52:10.905Z,21.43
2022-08-30T07:53:17.006Z,21.39
2022-08-30T07:54:24.691Z,21.36
2022-08-30T07:55:30.714Z,21.34
2022-08-30T07:56:37.545Z,21.35
2022-08-30T07:57:44.401Z,21.36
2022-08-30T07:58:53.074Z,21.37
2022-08-30T07:59:59.419Z,21.38
2022-08-30T08:01:06.840Z,21.39
2022-08-30T08:02:12.919Z,21.41
2022-08-30T08:03:20.013Z,21.42
2022-08-30T08:04:27.063Z,21.43
2022-08-30T08:05:54.059Z,21.44
2022-08-30T08:07:02.728Z,21.45
2022-08-30T08:08:08.620Z,21.45
2022-08-30T08:09:16.194Z,21.45
2022-08-30T08:10:24.465Z,21.45
2022-08-30T08:11:33.865Z,21.44
2022-08-30T08:12:41.615Z,21.44
2022-08-30T08:14:00.620Z,21.44
2022-08-30T08:15:09.015Z,21.43
2022-08-30T08:16:16.221Z,21.43
2022-08-30T08:17:23.546Z,21.43
2022-08-30T08:18:32.228Z,21.43
2022-08-30T08:19:38.438Z,21.43
2022-08-30T08:20:45.342Z,21.43
2022-08-30T08:22:04.145Z,21.44
2022-08-30T08:23:18.325Z,21.43
2022-08-30T08:24:25.261Z,21.42
2022-08-30T08:25:31.590Z,21.42
2022-08-30T08:26:41.142Z,21.41
2022-08-30T08:27:53.195Z,21.41
2022-08-30T08:29:01.197Z,21.40
2022-08-30T08:30:07.249Z,21.39
2022-08-30T08:31:21.427Z,21.39
2022-08-30T08:32:31.977Z,21.38
2022-08-30T08:33:38.997Z,21.36
2022-08-30T08:34:45.008Z,21.36
2022-08-30T08:35:50.692Z,21.34
2022-08-30T08:37:00.937Z,21.33
2022-08-30T08:38:06.869Z,21.32
2022-08-30T08:39:12.882Z,21.32
2022-08-30T08:40:19.230Z,21.31
2022-08-30T08:41:33.099Z,21.31
2022-08-30T08:42:54.419Z,21.32
2022-08-30T08:44:01.372Z,21.32
2022-08-30T08:45:11.464Z,21.32
2022-08-30T08:46:32.124Z,21.31
2022-08-30T08:47:41.265Z,21.30
2022-08-30T08:49:00.919Z,21.30
2022-08-30T08:50:19.033Z,21.28
2022-08-30T08:51:47.228Z,21.26
2022-08-30T08:53:46.066Z,21.25
2022-08-30T08:54:59.366Z,21.24
2022-08-30T08:56:12.997Z,21.23
2022-08-30T08:57:22.697Z,21.23
2022-08-30T08:58:33.093Z,21.24
2022-08-30T08:59:40.426Z,21.23
2022-08-30T09:00:47.903Z,21.23
2022-08-30T09:01:54.394Z,21.21
2022-08-30T09:03:07.695Z,21.21
2022-08-30T09:04:35.936Z,21.21
2022-08-30T09:05:42.259Z,21.20
2022-08-30T09:06:58.720Z,21.18
2022-08-30T09:08:17.877Z,21.17
2022-08-30T09:09:39.418Z,21.15
2022-08-30T09:11:07.590Z,21.15
2022-08-30T09:12:14.002Z,21.13
2022-08-30T09:13:22.985Z,21.14
2022-08-30T09:14:34.788Z,21.15
2022-08-30T09:15:41.182Z,21.16
2022-08-30T09:16:50.407Z,21.17
2022-08-30T09:18:01.948Z,21.18
2022-08-30T09:19:11.714Z,21.18
2022-08-30T09:20:27.630Z,21.18
2022-08-30T09:21:34.117Z,21.19
2022-08-30T09:22:46.791Z,21.18
2022-08-30T09:24:11.915Z,21.18
2022-08-30T09:25:31.622Z,21.16
2022-08-30T09:26:39.267Z,21.15
2022-08-30T09:27:46.532Z,21.14
2022-08-30T09:28:55.603Z,21.14
2022-08-30T09:30:06.959Z,21.14
2022-08-30T09:31:32.948Z,21.13
2022-08-30T09:32:42.869Z,21.13
2022-08-30T09:34:10.820Z,21.12
2022-08-30T09:35:19.833Z,21.12
2022-08-30T09:36:52.285Z,21.11
2022-08-30T09:37:59.266Z,21.08
2022-08-30T09:39:34.392Z,21.07
2022-08-30T09:40:49.209Z,21.05
2022-08-30T09:41:56.554Z,21.02
2022-08-30T09:43:31.820Z,20.98
2022-08-30T09:44:38.906Z,20.94
2022-08-30T09:46:13.186Z,20.90
2022-08-30T09:47:29.164Z,20.86
2022-08-30T09:48:44.526Z,20.81
2022-08-30T09:50:03.493Z,20.78
2022-08-30T09:51:49.589Z,20.76
2022-08-30T09:53:23.398Z,20.73
2022-08-30T09:54:45.310Z,20.70
2022-08-30T09:55:54.837Z,20.67
2022-08-30T09:57:19.934Z,20.65
2022-08-30T09:59:10.600Z,20.61
2022-08-30T10:00:23.996Z,20.54
2022-08-30T10:01:41.437Z,20.49
2022-08-30T10:03:09.743Z,20.45
2022-08-30T10:04:45.202Z,20.41
2022-08-30T10:06:08.434Z,20.37
2022-08-30T10:07:28.924Z,20.33
2022-08-30T10:08:51.760Z,20.30
2022-08-30T10:10:45.765Z,20.27
2022-08-30T10:11:53.217Z,20.24
2022-08-30T10:13:37.790Z,20.24
2022-08-30T10:14:54.316Z,20.22
2022-08-30T10:16:30.171Z,20.21
2022-08-30T10:17:58.880Z,20.19
2022-08-30T10:19:21.043Z,20.17
2022-08-30T10:20:33.950Z,20.16
2022-08-30T10:21:46.214Z,20.15
2022-08-30T10:23:10.269Z,20.15
2022-08-30T10:24:21.286Z,20.15
2022-08-30T10:25:31.535Z,20.15
2022-08-30T10:26:44.868Z,20.15
2022-08-30T10:28:11.998Z,20.15
2022-08-30T10:29:44.707Z,20.14
2022-08-30T10:30:58.424Z,20.12
2022-08-30T10:32:41.196Z,20.11
2022-08-30T10:33:53.287Z,20.10
2022-08-30T10:35:11.477Z,20.09
2022-08-30T10:36:27.241Z,20.09
2022-08-30T10:37:33.992Z,20.09
2022-08-30T10:38:49.847Z,20.10
2022-08-30T10:40:01.236Z,20.12
2022-08-30T10:41:47.838Z,20.14
2022-08-30T10:42:56.229Z,20.17
2022-08-30T10:44:24.510Z,20.18
2022-08-30T10:45:32.423Z,20.22
2022-08-30T10:46:57.576Z,20.24
2022-08-30T10:48:39.348Z,20.26
2022-08-30T10:49:54.585Z,20.31
2022-08-30T10:51:06.339Z,20.33
2022-08-30T10:52:33.322Z,20.35
2022-08-30T10:53:50.621Z,20.36
2022-08-30T10:55:15.639Z,20.38
2022-08-30T10:56:26.751Z,20.38
2022-08-30T10:57:35.729Z,20.39
2022-08-30T10:58:43.089Z,20.40
2022-08-30T11:00:01.370Z,20.40
2022-08-30T11:01:15.581Z,20.38
2022-08-30T11:02:30.341Z,20.35
2022-08-30T11:04:06.692Z,20.32
2022-08-30T11:05:46.634Z,20.27
2022-08-30T11:07:09.856Z,20.23
2022-08-30T11:08:48.021Z,20.18
2022-08-30T11:10:12.292Z,20.13
2022-08-30T11:11:40.694Z,20.09
2022-08-30T11:13:14.943Z,20.06
2022-08-30T11:14:20.633Z,20.04
2022-08-30T11:15:34.923Z,20.03
2022-08-30T11:16:43.308Z,20.03
2022-08-30T11:18:04.571Z,20.02
2022-08-30T11:19:43.311Z,20.01
2022-08-30T11:20:51.515Z,19.99
2022-08-30T11:22:14.524Z,19.97
2022-08-30T11:23:20.821Z,19.95
2022-08-30T11:24:27.211Z,19.93
2022-08-30T11:26:09.145Z,19.92
2022-08-30T11:27:44.270Z,19.87
2022-08-30T11:28:51.317Z,19.83
2022-08-30T11:29:58.396Z,19.82
2022-08-30T11:31:23.688Z,19.82
2022-08-30T11:34:57.890Z,19.78
2022-08-30T11:36:05.298Z,19.77
2022-08-30T11:37:10.978Z,19.77
2022-08-30T11:38:45.525Z,19.78
2022-08-30T11:39:55.853Z,19.77
2022-08-30T11:41:11.120Z,19.76
2022-08-30T11:42:29.434Z,19.74
2022-08-30T11:43:47.136Z,19.72
2022-08-30T11:44:55.667Z,19.71
2022-08-30T11:46:30.661Z,19.70
2022-08-30T11:47:47.645Z,19.70
2022-08-30T11:48:55.837Z,19.71
2022-08-30T11:50:14.979Z,19.71
2022-08-30T11:52:27.971Z,19.71
2022-08-30T11:53:51.998Z,19.69
2022-08-30T11:55:15.894Z,19.68
2022-08-30T11:56:37.937Z,19.66
2022-08-30T11:57:58.967Z,19.65
2022-08-30T11:59:30.416Z,19.64
2022-08-30T12:00:44.209Z,19.62
2022-08-30T12:01:57.352Z,19.59
2022-08-30T12:03:07.602Z,19.57
2022-08-30T12:04:23.576Z,19.55
2022-08-30T12:05:51.314Z,19.55
2022-08-30T12:07:06.083Z,19.54
2022-08-30T12:08:37.327Z,19.55
2022-08-30T12:10:05.409Z,19.56
2022-08-30T12:11:17.242Z,19.56
2022-08-30T12:12:48.045Z,19.57
2022-08-30T12:13:57.741Z,19.59
2022-08-30T12:15:03.897Z,19.59
2022-08-30T12:16:22.607Z,19.60
2022-08-30T12:18:15.674Z,19.59
2022-08-30T12:19:22.766Z,19.58
2022-08-30T12:20:33.442Z,19.59
2022-08-30T12:21:44.909Z,19.60
2022-08-30T12:22:53.204Z,19.62
2022-08-30T12:24:20.923Z,19.62
2022-08-30T12:25:36.745Z,19.61
2022-08-30T12:26:45.029Z,19.60
2022-08-30T12:27:52.126Z,19.61
2022-08-30T12:29:22.533Z,19.61
2022-08-30T12:30:40.449Z,19.60
2022-08-30T12:32:05.765Z,19.59
2022-08-30T12:33:12.696Z,19.59
2022-08-30T12:34:29.008Z,19.58
2022-08-30T12:35:35.367Z,19.58
2022-08-30T12:36:51.676Z,19.58
2022-08-30T12:38:07.442Z,19.58
2022-08-30T12:39:19.292Z,19.58
2022-08-30T12:40:31.662Z,19.58
2022-08-30T12:41:43.543Z,19.59
2022-08-30T12:42:58.019Z,19.59
2022-08-30T12:44:05.361Z,19.60
2022-08-30T12:45:17.776Z,19.60
2022-08-30T12:46:23.693Z,19.60
2022-08-30T12:47:36.975Z,19.61
2022-08-30T12:48:45.992Z,19.61
2022-08-30T12:49:53.036Z,19.61
2022-08-30T12:50:59.917Z,19.62
2022-08-30T12:52:25.590Z,19.63
2022-08-30T12:53:47.077Z,19.64
2022-08-30T12:55:16.937Z,19.64
2022-08-30T12:56:56.332Z,19.65
2022-08-30T12:58:13.422Z,19.65
2022-08-30T12:59:58.530Z,19.64
2022-08-30T13:01:21.261Z,19.62
2022-08-30T13:02:55.630Z,19.62
2022-08-30T13:04:22.240Z,19.60
2022-08-30T13:05:44.965Z,19.60
2022-08-30T13:06:55.342Z,19.61
2022-08-30T13:08:22.489Z,19.61
2022-08-30T13:09:36.479Z,19.62
2022-08-30T13:10:56.051Z,19.64
2022-08-30T13:12:21.144Z,19.65
2022-08-30T13:13:45.168Z,19.66
2022-08-30T13:15:33.894Z,19.64
2022-08-30T13:16:45.299Z,19.63
2022-08-30T13:17:52.996Z,19.62
2022-08-30T13:19:21.438Z,19.61
2022-08-30T13:20:29.230Z,19.61
2022-08-30T13:21:38.531Z,19.59
2022-08-30T13:23:07.300Z,19.59
2022-08-30T13:24:12.997Z,19.58
2022-08-30T13:25:20.358Z,19.57
2022-08-30T13:26:28.032Z,19.56
2022-08-30T13:27:37.242Z,19.57
2022-08-30T13:29:10.375Z,19.58
2022-08-30T13:30:18.914Z,19.57
2022-08-30T13:31:26.158Z,19.58
2022-08-30T13:32:39.043Z,19.58
2022-08-30T13:33:48.290Z,19.58
2022-08-30T13:34:56.540Z,19.58
2022-08-30T13:36:05.415Z,19.59
2022-08-30T13:38:44.372Z,19.59
2022-08-30T13:39:50.676Z,19.61
2022-08-30T13:40:57.878Z,19.64
2022-08-30T13:44:09.421Z,19.70
2022-08-30T13:45:04.006Z,19.79
2022-08-30T13:46:10.524Z,19.90
2022-08-30T13:47:33.421Z,20.02
2022-08-30T13:48:44.858Z,20.17
2022-08-30T13:49:52.539Z,20.31
2022-08-30T13:50:59.123Z,20.42
2022-08-30T13:52:19.762Z,20.53
2022-08-30T13:54:58.178Z,20.68
2022-08-30T13:56:05.096Z,20.75
2022-08-30T13:57:11.263Z,20.89
2022-08-30T13:58:18.103Z,21.08
2022-08-30T13:59:24.255Z,21.31
2022-08-30T14:00:33.593Z,21.55
2022-08-30T14:03:11.838Z,22.17
2022-08-30T14:04:18.292Z,22.46
2022-08-30T14:07:20.028Z,23.09
2022-08-30T14:08:49.348Z,23.46
2022-08-30T14:10:30.589Z,23.76
2022-08-30T14:11:27.586Z,23.94
2022-08-30T14:14:30.243Z,24.20
2022-08-30T14:15:30.044Z,24.32
2022-08-30T14:16:36.476Z,24.42
2022-08-30T14:17:42.803Z,24.54
2022-08-30T14:18:50.541Z,24.66
2022-08-30T14:19:58.587Z,24.79
2022-08-30T14:21:07.287Z,24.93
2022-08-30T14:22:13.649Z,25.06
2022-08-30T14:23:20.031Z,25.17
2022-08-30T14:24:26.451Z,25.26
2022-08-30T14:25:32.507Z,25.39
2022-08-30T14:26:49.062Z,25.52
2022-08-30T14:27:55.527Z,25.62
2022-08-30T14:29:04.337Z,25.71
2022-08-30T14:30:11.137Z,25.83
2022-08-30T14:31:17.285Z,25.91
2022-08-30T14:32:30.764Z,25.98
2022-08-30T14:33:38.733Z,26.10
2022-08-30T14:34:45.889Z,26.24
2022-08-30T14:35:56.638Z,26.37
2022-08-30T14:37:03.257Z,26.53
2022-08-30T14:38:11.458Z,26.68
2022-08-30T14:39:20.686Z,26.78
2022-08-30T14:40:29.002Z,26.90
2022-08-30T14:41:38.992Z,26.96
2022-08-30T14:42:49.571Z,27.02
2022-08-30T14:43:56.007Z,27.18
2022-08-30T14:45:05.512Z,27.36
2022-08-30T14:46:12.697Z,27.48
2022-08-30T14:47:19.915Z,27.54
2022-08-30T14:48:26.874Z,27.58
2022-08-30T14:49:38.166Z,27.63
2022-08-30T14:50:45.104Z,27.67
2022-08-30T14:51:52.740Z,27.72
2022-08-30T14:52:59.677Z,27.80
2022-08-30T14:54:05.910Z,27.87
2022-08-30T14:55:14.966Z,27.92
2022-08-30T14:56:22.474Z,27.94
2022-08-30T14:57:28.619Z,27.97
2022-08-30T14:58:35.957Z,28.02
2022-08-30T14:59:44.058Z,28.09
2022-08-30T15:00:53.038Z,28.11
2022-08-30T15:02:00.452Z,28.06
2022-08-30T15:03:12.728Z,27.99
2022-08-30T15:04:21.829Z,27.97
2022-08-30T15:05:28.551Z,27.96
2022-08-30T15:06:38.957Z,27.96
2022-08-30T15:07:51.139Z,27.91
2022-08-30T15:09:00.939Z,27.81
2022-08-30T15:10:12.188Z,27.81
2022-08-30T15:11:29.877Z,27.87
2022-08-30T15:12:43.359Z,28.02
2022-08-30T15:13:53.340Z,28.12
2022-08-30T15:15:02.034Z,28.14
2022-08-30T15:16:18.631Z,28.15
2022-08-30T15:17:26.121Z,28.24
2022-08-30T15:18:37.188Z,28.34
2022-08-30T15:19:46.558Z,28.52
2022-08-30T15:20:54.985Z,28.76
2022-08-30T15:22:03.630Z,28.87
2022-08-30T15:23:09.619Z,29.07
2022-08-30T15:24:19.902Z,29.26
2022-08-30T15:25:39.609Z,29.55
2022-08-30T15:26:52.870Z,29.79
2022-08-30T15:27:59.353Z,29.93
2022-08-30T15:29:10.465Z,30.15
2022-08-30T15:30:20.324Z,30.43
2022-08-30T15:31:33.987Z,30.67
2022-08-30T15:32:47.321Z,30.98
2022-08-30T15:33:54.453Z,31.23
2022-08-30T15:35:05.417Z,31.42
2022-08-30T15:36:14.133Z,31.54
2022-08-30T15:37:23.885Z,31.71
2022-08-30T15:38:33.255Z,31.85
2022-08-30T15:39:41.723Z,31.90
2022-08-30T15:40:51.804Z,31.80
2022-08-30T15:42:01.157Z,31.90
2022-08-30T15:43:08.877Z,31.98
2022-08-30T15:44:15.464Z,32.09
2022-08-30T15:45:26.505Z,32.25
2022-08-30T15:46:38.685Z,32.39
2022-08-30T15:47:47.456Z,32.56
2022-08-30T15:48:57.615Z,32.74
2022-08-30T15:50:06.108Z,32.94
2022-08-30T15:51:15.076Z,32.99
2022-08-30T15:52:23.653Z,32.99
2022-08-30T15:53:30.092Z,33.06
2022-08-30T15:54:38.029Z,33.15
2022-08-30T15:55:47.791Z,33.31